sensor_id;sensor_type;location;lat;lon;timestamp;P1;durP1;ratioP1;P2;durP2;ratioP2
71696;SDS011;68167;59.120;37.898;2023-10-19T00:00:49;24.97;;;7.97;;
71696;SDS011;68167;59.120;37.898;2023-10-19T00:03:17;24.80;;;8.03;;
71696;SDS011;68167;59.120;37.898;2023-10-19T00:05:45;18.13;;;7.93;;
71696;SDS011;68167;59.120;37.898;2023-10-19T00:08:13;24.80;;;7.93;;
71696;SDS011;68167;59.120;37.898;2023-10-19T00:10:48;27.83;;;7.07;;
71696;SDS011;68167;59.120;37.898;2023-10-19T00:13:37;21.57;;;7.80;;
71696;SDS011;68167;59.120;37.898;2023-10-19T00:16:05;21.90;;;7.23;;
71696;SDS011;68167;59.120;37.898;2023-10-19T00:18:43;24.33;;;7.87;;
71696;SDS011;68167;59.120;37.898;2023-10-19T00:21:10;21.97;;;7.40;;
71696;SDS011;68167;59.120;37.898;2023-10-19T00:23:45;20.97;;;6.70;;
71696;SDS011;68167;59.120;37.898;2023-10-19T00:26:13;18.40;;;6.27;;
71696;SDS011;68167;59.120;37.898;2023-10-19T00:28:53;16.57;;;6.33;;
71696;SDS011;68167;59.120;37.898;2023-10-19T00:31:22;18.43;;;6.43;;
71696;SDS011;68167;59.120;37.898;2023-10-19T00:33:49;16.27;;;6.17;;
71696;SDS011;68167;59.120;37.898;2023-10-19T00:36:20;19.30;;;6.87;;
71696;SDS011;68167;59.120;37.898;2023-10-19T00:38:49;16.60;;;6.17;;
71696;SDS011;68167;59.120;37.898;2023-10-19T00:41:18;26.43;;;8.33;;
71696;SDS011;68167;59.120;37.898;2023-10-19T00:43:58;15.17;;;5.97;;
71696;SDS011;68167;59.120;37.898;2023-10-19T00:46:29;15.30;;;6.37;;
71696;SDS011;68167;59.120;37.898;2023-10-19T00:49:04;17.33;;;6.30;;
71696;SDS011;68167;59.120;37.898;2023-10-19T00:54:04;20.20;;;7.93;;
71696;SDS011;68167;59.120;37.898;2023-10-19T00:56:37;27.10;;;7.87;;
71696;SDS011;68167;59.120;37.898;2023-10-19T00:59:07;24.60;;;7.57;;
71696;SDS011;68167;59.120;37.898;2023-10-19T01:01:41;24.23;;;9.20;;
71696;SDS011;68167;59.120;37.898;2023-10-19T01:04:15;21.57;;;9.43;;
71696;SDS011;68167;59.120;37.898;2023-10-19T01:06:46;24.63;;;9.13;;
71696;SDS011;68167;59.120;37.898;2023-10-19T01:09:30;24.70;;;8.20;;
71696;SDS011;68167;59.120;37.898;2023-10-19T01:12:01;30.07;;;11.67;;
71696;SDS011;68167;59.120;37.898;2023-10-19T01:15:00;24.40;;;9.60;;
71696;SDS011;68167;59.120;37.898;2023-10-19T01:17:32;31.10;;;11.73;;
71696;SDS011;68167;59.120;37.898;2023-10-19T01:25:20;44.90;;;13.17;;
71696;SDS011;68167;59.120;37.898;2023-10-19T01:28:07;41.97;;;13.90;;
71696;SDS011;68167;59.120;37.898;2023-10-19T01:30:36;44.07;;;14.83;;
71696;SDS011;68167;59.120;37.898;2023-10-19T01:33:04;44.60;;;15.37;;
71696;SDS011;68167;59.120;37.898;2023-10-19T01:35:39;41.07;;;13.13;;
71696;SDS011;68167;59.120;37.898;2023-10-19T01:38:24;43.30;;;13.63;;
71696;SDS011;68167;59.120;37.898;2023-10-19T01:40:51;46.37;;;14.90;;
71696;SDS011;68167;59.120;37.898;2023-10-19T01:43:19;39.03;;;13.40;;
71696;SDS011;68167;59.120;37.898;2023-10-19T01:45:59;46.40;;;13.60;;
71696;SDS011;68167;59.120;37.898;2023-10-19T01:48:31;39.27;;;13.03;;
71696;SDS011;68167;59.120;37.898;2023-10-19T01:51:05;55.13;;;15.70;;
71696;SDS011;68167;59.120;37.898;2023-10-19T01:53:32;49.07;;;15.63;;
71696;SDS011;68167;59.120;37.898;2023-10-19T01:56:00;51.33;;;14.83;;
71696;SDS011;68167;59.120;37.898;2023-10-19T01:58:27;44.07;;;14.40;;
71696;SDS011;68167;59.120;37.898;2023-10-19T02:00:53;45.23;;;12.97;;
71696;SDS011;68167;59.120;37.898;2023-10-19T02:03:26;40.67;;;13.47;;
71696;SDS011;68167;59.120;37.898;2023-10-19T02:05:58;45.97;;;13.13;;
71696;SDS011;68167;59.120;37.898;2023-10-19T02:08:25;39.37;;;12.13;;
71696;SDS011;68167;59.120;37.898;2023-10-19T02:10:53;35.47;;;11.07;;
71696;SDS011;68167;59.120;37.898;2023-10-19T02:13:20;33.60;;;11.33;;
71696;SDS011;68167;59.120;37.898;2023-10-19T02:15:47;41.17;;;11.23;;
71696;SDS011;68167;59.120;37.898;2023-10-19T02:18:15;30.63;;;9.70;;
71696;SDS011;68167;59.120;37.898;2023-10-19T02:20:43;37.10;;;9.93;;
71696;SDS011;68167;59.120;37.898;2023-10-19T02:23:14;33.63;;;9.33;;
71696;SDS011;68167;59.120;37.898;2023-10-19T02:25:40;38.73;;;9.73;;
71696;SDS011;68167;59.120;37.898;2023-10-19T02:28:08;36.23;;;10.07;;
71696;SDS011;68167;59.120;37.898;2023-10-19T02:30:35;47.87;;;11.23;;
71696;SDS011;68167;59.120;37.898;2023-10-19T02:33:01;47.23;;;11.60;;
71696;SDS011;68167;59.120;37.898;2023-10-19T02:35:29;38.27;;;10.83;;
71696;SDS011;68167;59.120;37.898;2023-10-19T02:37:55;30.47;;;9.73;;
71696;SDS011;68167;59.120;37.898;2023-10-19T02:40:23;42.33;;;10.53;;
71696;SDS011;68167;59.120;37.898;2023-10-19T02:42:50;44.60;;;11.70;;
71696;SDS011;68167;59.120;37.898;2023-10-19T02:45:17;50.37;;;11.43;;
71696;SDS011;68167;59.120;37.898;2023-10-19T02:47:45;43.40;;;11.30;;
71696;SDS011;68167;59.120;37.898;2023-10-19T02:50:12;39.67;;;11.60;;
71696;SDS011;68167;59.120;37.898;2023-10-19T02:52:42;36.60;;;9.67;;
71696;SDS011;68167;59.120;37.898;2023-10-19T02:55:11;39.63;;;11.07;;
71696;SDS011;68167;59.120;37.898;2023-10-19T02:57:38;37.57;;;10.50;;
71696;SDS011;68167;59.120;37.898;2023-10-19T03:00:05;41.07;;;11.80;;
71696;SDS011;68167;59.120;37.898;2023-10-19T03:02:39;44.30;;;11.67;;
71696;SDS011;68167;59.120;37.898;2023-10-19T03:05:06;38.77;;;10.83;;
71696;SDS011;68167;59.120;37.898;2023-10-19T03:07:43;24.37;;;7.60;;
71696;SDS011;68167;59.120;37.898;2023-10-19T03:10:10;32.73;;;9.47;;
71696;SDS011;68167;59.120;37.898;2023-10-19T03:12:50;19.10;;;5.10;;
71696;SDS011;68167;59.120;37.898;2023-10-19T03:15:17;5.17;;;2.13;;
71696;SDS011;68167;59.120;37.898;2023-10-19T03:17:46;6.33;;;2.50;;
71696;SDS011;68167;59.120;37.898;2023-10-19T03:20:14;5.50;;;2.23;;
71696;SDS011;68167;59.120;37.898;2023-10-19T03:22:43;3.50;;;1.50;;
71696;SDS011;68167;59.120;37.898;2023-10-19T03:25:12;5.07;;;1.70;;
71696;SDS011;68167;59.120;37.898;2023-10-19T03:27:57;5.00;;;1.73;;
71696;SDS011;68167;59.120;37.898;2023-10-19T03:30:32;6.20;;;1.83;;
71696;SDS011;68167;59.120;37.898;2023-10-19T03:33:06;2.77;;;1.37;;
71696;SDS011;68167;59.120;37.898;2023-10-19T03:35:38;2.87;;;1.60;;
71696;SDS011;68167;59.120;37.898;2023-10-19T03:38:08;4.73;;;1.87;;
71696;SDS011;68167;59.120;37.898;2023-10-19T03:40:41;4.07;;;1.50;;
71696;SDS011;68167;59.120;37.898;2023-10-19T03:43:08;7.30;;;1.80;;
71696;SDS011;68167;59.120;37.898;2023-10-19T03:45:43;2.60;;;1.60;;
71696;SDS011;68167;59.120;37.898;2023-10-19T03:48:19;4.83;;;2.40;;
71696;SDS011;68167;59.120;37.898;2023-10-19T03:51:05;4.60;;;1.70;;
71696;SDS011;68167;59.120;37.898;2023-10-19T03:53:31;4.80;;;2.70;;
71696;SDS011;68167;59.120;37.898;2023-10-19T03:55:58;6.37;;;2.53;;
71696;SDS011;68167;59.120;37.898;2023-10-19T03:58:25;3.90;;;1.90;;
71696;SDS011;68167;59.120;37.898;2023-10-19T04:00:56;5.27;;;1.70;;
71696;SDS011;68167;59.120;37.898;2023-10-19T04:03:27;5.40;;;1.90;;
71696;SDS011;68167;59.120;37.898;2023-10-19T04:05:57;2.53;;;1.40;;
71696;SDS011;68167;59.120;37.898;2023-10-19T04:08:26;2.47;;;1.33;;
71696;SDS011;68167;59.120;37.898;2023-10-19T04:10:57;2.60;;;1.50;;
71696;SDS011;68167;59.120;37.898;2023-10-19T04:13:48;5.17;;;2.00;;
71696;SDS011;68167;59.120;37.898;2023-10-19T04:16:19;5.47;;;2.40;;
71696;SDS011;68167;59.120;37.898;2023-10-19T04:18:46;5.93;;;2.10;;
71696;SDS011;68167;59.120;37.898;2023-10-19T04:21:14;4.43;;;1.73;;
71696;SDS011;68167;59.120;37.898;2023-10-19T04:23:41;2.77;;;1.60;;
71696;SDS011;68167;59.120;37.898;2023-10-19T04:26:07;2.87;;;1.40;;
71696;SDS011;68167;59.120;37.898;2023-10-19T04:28:37;5.63;;;2.07;;
71696;SDS011;68167;59.120;37.898;2023-10-19T04:31:11;4.47;;;2.20;;
71696;SDS011;68167;59.120;37.898;2023-10-19T04:33:40;5.47;;;2.37;;
71696;SDS011;68167;59.120;37.898;2023-10-19T04:36:08;4.70;;;1.77;;
71696;SDS011;68167;59.120;37.898;2023-10-19T04:38:37;6.40;;;2.03;;
71696;SDS011;68167;59.120;37.898;2023-10-19T04:41:04;7.17;;;2.50;;
71696;SDS011;68167;59.120;37.898;2023-10-19T04:43:35;5.83;;;1.87;;
71696;SDS011;68167;59.120;37.898;2023-10-19T04:46:07;7.40;;;2.60;;
71696;SDS011;68167;59.120;37.898;2023-10-19T04:48:38;3.87;;;1.90;;
71696;SDS011;68167;59.120;37.898;2023-10-19T04:51:06;7.17;;;2.20;;
71696;SDS011;68167;59.120;37.898;2023-10-19T04:53:35;6.43;;;2.77;;
71696;SDS011;68167;59.120;37.898;2023-10-19T04:56:03;3.47;;;1.47;;
71696;SDS011;68167;59.120;37.898;2023-10-19T04:58:30;7.27;;;2.53;;
71696;SDS011;68167;59.120;37.898;2023-10-19T05:00:57;4.63;;;1.70;;
71696;SDS011;68167;59.120;37.898;2023-10-19T05:03:25;7.40;;;2.20;;
71696;SDS011;68167;59.120;37.898;2023-10-19T05:05:52;3.37;;;2.07;;
71696;SDS011;68167;59.120;37.898;2023-10-19T05:08:18;6.33;;;2.37;;
71696;SDS011;68167;59.120;37.898;2023-10-19T05:10:45;4.33;;;1.80;;
71696;SDS011;68167;59.120;37.898;2023-10-19T05:13:12;3.83;;;1.73;;
71696;SDS011;68167;59.120;37.898;2023-10-19T05:15:38;5.87;;;2.40;;
71696;SDS011;68167;59.120;37.898;2023-10-19T05:18:05;6.10;;;2.60;;
71696;SDS011;68167;59.120;37.898;2023-10-19T05:20:32;5.57;;;2.63;;
71696;SDS011;68167;59.120;37.898;2023-10-19T05:22:58;6.60;;;2.80;;
71696;SDS011;68167;59.120;37.898;2023-10-19T05:25:26;4.33;;;2.47;;
71696;SDS011;68167;59.120;37.898;2023-10-19T05:27:52;7.90;;;2.33;;
71696;SDS011;68167;59.120;37.898;2023-10-19T05:30:19;3.37;;;1.80;;
71696;SDS011;68167;59.120;37.898;2023-10-19T05:32:45;3.10;;;1.40;;
71696;SDS011;68167;59.120;37.898;2023-10-19T05:35:12;16.80;;;1.90;;
71696;SDS011;68167;59.120;37.898;2023-10-19T05:37:44;3.50;;;1.60;;
71696;SDS011;68167;59.120;37.898;2023-10-19T05:40:11;2.60;;;1.70;;
71696;SDS011;68167;59.120;37.898;2023-10-19T05:42:41;2.83;;;1.10;;
71696;SDS011;68167;59.120;37.898;2023-10-19T05:45:07;2.67;;;1.10;;
71696;SDS011;68167;59.120;37.898;2023-10-19T05:47:34;3.50;;;1.30;;
71696;SDS011;68167;59.120;37.898;2023-10-19T05:50:01;4.77;;;1.20;;
71696;SDS011;68167;59.120;37.898;2023-10-19T05:52:29;2.53;;;1.20;;
71696;SDS011;68167;59.120;37.898;2023-10-19T05:54:56;2.07;;;1.30;;
71696;SDS011;68167;59.120;37.898;2023-10-19T05:57:23;3.37;;;1.53;;
71696;SDS011;68167;59.120;37.898;2023-10-19T05:59:51;3.77;;;1.50;;
71696;SDS011;68167;59.120;37.898;2023-10-19T06:02:17;2.97;;;1.27;;
71696;SDS011;68167;59.120;37.898;2023-10-19T06:04:44;3.50;;;1.37;;
71696;SDS011;68167;59.120;37.898;2023-10-19T06:07:10;3.30;;;1.27;;
71696;SDS011;68167;59.120;37.898;2023-10-19T06:09:37;6.37;;;1.30;;
71696;SDS011;68167;59.120;37.898;2023-10-19T06:12:04;4.97;;;2.43;;
71696;SDS011;68167;59.120;37.898;2023-10-19T06:14:31;6.17;;;1.50;;
71696;SDS011;68167;59.120;37.898;2023-10-19T06:16:58;5.27;;;2.80;;
71696;SDS011;68167;59.120;37.898;2023-10-19T06:19:24;3.13;;;1.53;;
71696;SDS011;68167;59.120;37.898;2023-10-19T06:21:51;3.03;;;1.00;;
71696;SDS011;68167;59.120;37.898;2023-10-19T06:24:17;2.03;;;1.40;;
71696;SDS011;68167;59.120;37.898;2023-10-19T06:26:44;2.03;;;1.10;;
71696;SDS011;68167;59.120;37.898;2023-10-19T06:29:10;5.43;;;1.67;;
71696;SDS011;68167;59.120;37.898;2023-10-19T06:31:37;3.73;;;2.20;;
71696;SDS011;68167;59.120;37.898;2023-10-19T06:34:03;3.67;;;2.00;;
71696;SDS011;68167;59.120;37.898;2023-10-19T06:36:30;4.93;;;1.53;;
71696;SDS011;68167;59.120;37.898;2023-10-19T06:38:56;7.47;;;1.80;;
71696;SDS011;68167;59.120;37.898;2023-10-19T06:41:22;9.43;;;2.03;;
71696;SDS011;68167;59.120;37.898;2023-10-19T06:43:50;12.33;;;1.87;;
71696;SDS011;68167;59.120;37.898;2023-10-19T06:46:16;7.43;;;1.90;;
71696;SDS011;68167;59.120;37.898;2023-10-19T06:48:42;3.37;;;1.60;;
71696;SDS011;68167;59.120;37.898;2023-10-19T06:51:08;4.20;;;2.40;;
71696;SDS011;68167;59.120;37.898;2023-10-19T06:53:35;4.83;;;2.17;;
71696;SDS011;68167;59.120;37.898;2023-10-19T06:56:02;6.70;;;2.53;;
71696;SDS011;68167;59.120;37.898;2023-10-19T06:58:30;8.83;;;2.97;;
71696;SDS011;68167;59.120;37.898;2023-10-19T07:00:56;10.77;;;2.90;;
71696;SDS011;68167;59.120;37.898;2023-10-19T07:03:22;3.87;;;1.67;;
71696;SDS011;68167;59.120;37.898;2023-10-19T07:05:49;4.33;;;1.73;;
71696;SDS011;68167;59.120;37.898;2023-10-19T07:08:17;3.40;;;1.87;;
71696;SDS011;68167;59.120;37.898;2023-10-19T07:10:47;4.00;;;1.90;;
71696;SDS011;68167;59.120;37.898;2023-10-19T07:13:15;3.43;;;1.90;;
71696;SDS011;68167;59.120;37.898;2023-10-19T07:15:44;5.07;;;2.40;;
71696;SDS011;68167;59.120;37.898;2023-10-19T07:18:11;5.43;;;2.13;;
71696;SDS011;68167;59.120;37.898;2023-10-19T07:20:37;2.70;;;1.40;;
71696;SDS011;68167;59.120;37.898;2023-10-19T07:23:05;6.37;;;1.57;;
71696;SDS011;68167;59.120;37.898;2023-10-19T07:25:36;2.50;;;1.23;;
71696;SDS011;68167;59.120;37.898;2023-10-19T07:28:09;7.30;;;1.67;;
71696;SDS011;68167;59.120;37.898;2023-10-19T07:30:39;3.73;;;1.83;;
71696;SDS011;68167;59.120;37.898;2023-10-19T07:33:07;5.20;;;2.43;;
71696;SDS011;68167;59.120;37.898;2023-10-19T07:35:36;5.97;;;1.80;;
71696;SDS011;68167;59.120;37.898;2023-10-19T07:38:08;6.17;;;1.67;;
71696;SDS011;68167;59.120;37.898;2023-10-19T07:40:35;2.93;;;1.40;;
71696;SDS011;68167;59.120;37.898;2023-10-19T07:43:02;4.33;;;1.50;;
71696;SDS011;68167;59.120;37.898;2023-10-19T07:45:30;3.33;;;1.70;;
71696;SDS011;68167;59.120;37.898;2023-10-19T07:48:01;2.83;;;1.83;;
71696;SDS011;68167;59.120;37.898;2023-10-19T07:50:35;2.87;;;1.47;;
71696;SDS011;68167;59.120;37.898;2023-10-19T07:53:03;4.90;;;1.67;;
71696;SDS011;68167;59.120;37.898;2023-10-19T07:55:30;5.10;;;1.40;;
71696;SDS011;68167;59.120;37.898;2023-10-19T07:58:00;3.47;;;1.30;;
71696;SDS011;68167;59.120;37.898;2023-10-19T08:00:27;2.20;;;1.30;;
71696;SDS011;68167;59.120;37.898;2023-10-19T08:02:57;2.17;;;1.20;;
71696;SDS011;68167;59.120;37.898;2023-10-19T08:05:24;3.17;;;1.30;;
71696;SDS011;68167;59.120;37.898;2023-10-19T08:07:52;3.53;;;1.00;;
71696;SDS011;68167;59.120;37.898;2023-10-19T08:10:19;1.80;;;1.10;;
71696;SDS011;68167;59.120;37.898;2023-10-19T08:12:47;1.40;;;1.10;;
71696;SDS011;68167;59.120;37.898;2023-10-19T08:15:15;1.83;;;1.10;;
71696;SDS011;68167;59.120;37.898;2023-10-19T08:17:43;1.27;;;0.83;;
71696;SDS011;68167;59.120;37.898;2023-10-19T08:20:11;3.33;;;1.20;;
71696;SDS011;68167;59.120;37.898;2023-10-19T08:22:56;5.03;;;1.20;;
71696;SDS011;68167;59.120;37.898;2023-10-19T08:25:24;3.03;;;1.43;;
71696;SDS011;68167;59.120;37.898;2023-10-19T08:27:54;5.37;;;1.90;;
71696;SDS011;68167;59.120;37.898;2023-10-19T08:30:24;5.17;;;1.60;;
71696;SDS011;68167;59.120;37.898;2023-10-19T08:32:51;5.07;;;2.10;;
71696;SDS011;68167;59.120;37.898;2023-10-19T08:35:20;3.33;;;1.60;;
71696;SDS011;68167;59.120;37.898;2023-10-19T08:37:51;9.33;;;2.30;;
71696;SDS011;68167;59.120;37.898;2023-10-19T08:40:19;3.30;;;2.37;;
71696;SDS011;68167;59.120;37.898;2023-10-19T08:42:48;4.30;;;1.73;;
71696;SDS011;68167;59.120;37.898;2023-10-19T08:45:15;3.73;;;2.03;;
71696;SDS011;68167;59.120;37.898;2023-10-19T08:50:28;5.77;;;1.80;;
71696;SDS011;68167;59.120;37.898;2023-10-19T08:52:57;2.13;;;1.40;;
71696;SDS011;68167;59.120;37.898;2023-10-19T08:55:25;5.63;;;1.80;;
71696;SDS011;68167;59.120;37.898;2023-10-19T08:57:52;3.37;;;1.77;;
71696;SDS011;68167;59.120;37.898;2023-10-19T09:00:19;2.43;;;1.43;;
71696;SDS011;68167;59.120;37.898;2023-10-19T09:02:51;3.37;;;1.43;;
71696;SDS011;68167;59.120;37.898;2023-10-19T09:05:18;6.03;;;1.80;;
71696;SDS011;68167;59.120;37.898;2023-10-19T09:07:50;5.30;;;1.77;;
71696;SDS011;68167;59.120;37.898;2023-10-19T09:10:25;5.73;;;1.80;;
71696;SDS011;68167;59.120;37.898;2023-10-19T09:13:03;3.80;;;1.67;;
71696;SDS011;68167;59.120;37.898;2023-10-19T09:15:32;3.00;;;1.93;;
71696;SDS011;68167;59.120;37.898;2023-10-19T09:18:16;4.43;;;1.70;;
71696;SDS011;68167;59.120;37.898;2023-10-19T09:20:47;3.27;;;1.83;;
71696;SDS011;68167;59.120;37.898;2023-10-19T09:25:49;2.07;;;1.47;;
71696;SDS011;68167;59.120;37.898;2023-10-19T09:28:19;6.50;;;3.50;;
71696;SDS011;68167;59.120;37.898;2023-10-19T09:30:50;9.07;;;3.87;;
71696;SDS011;68167;59.120;37.898;2023-10-19T09:33:17;3.90;;;2.50;;
71696;SDS011;68167;59.120;37.898;2023-10-19T09:35:48;6.87;;;2.57;;
71696;SDS011;68167;59.120;37.898;2023-10-19T09:38:16;3.23;;;1.50;;
71696;SDS011;68167;59.120;37.898;2023-10-19T09:40:51;2.50;;;1.60;;
71696;SDS011;68167;59.120;37.898;2023-10-19T09:45:52;4.50;;;1.60;;
71696;SDS011;68167;59.120;37.898;2023-10-19T09:48:24;2.17;;;1.70;;
71696;SDS011;68167;59.120;37.898;2023-10-19T09:50:55;2.43;;;1.80;;
71696;SDS011;68167;59.120;37.898;2023-10-19T09:53:25;3.63;;;1.60;;
71696;SDS011;68167;59.120;37.898;2023-10-19T09:55:56;5.20;;;2.00;;
71696;SDS011;68167;59.120;37.898;2023-10-19T09:58:26;3.40;;;1.83;;
71696;SDS011;68167;59.120;37.898;2023-10-19T10:00:58;5.63;;;2.47;;
71696;SDS011;68167;59.120;37.898;2023-10-19T10:06:10;4.53;;;1.87;;
71696;SDS011;68167;59.120;37.898;2023-10-19T10:08:47;6.17;;;1.70;;
71696;SDS011;68167;59.120;37.898;2023-10-19T10:11:16;4.93;;;1.90;;
71696;SDS011;68167;59.120;37.898;2023-10-19T10:13:43;5.47;;;1.50;;
71696;SDS011;68167;59.120;37.898;2023-10-19T10:16:28;4.60;;;1.57;;
71696;SDS011;68167;59.120;37.898;2023-10-19T10:18:56;4.77;;;2.00;;
71696;SDS011;68167;59.120;37.898;2023-10-19T10:21:32;4.33;;;2.50;;
71696;SDS011;68167;59.120;37.898;2023-10-19T10:24:00;4.20;;;1.77;;
71696;SDS011;68167;59.120;37.898;2023-10-19T10:26:31;7.83;;;2.13;;
71696;SDS011;68167;59.120;37.898;2023-10-19T10:29:23;2.80;;;1.50;;
71696;SDS011;68167;59.120;37.898;2023-10-19T10:31:50;3.10;;;1.70;;
71696;SDS011;68167;59.120;37.898;2023-10-19T10:37:03;4.53;;;2.10;;
71696;SDS011;68167;59.120;37.898;2023-10-19T10:39:35;3.40;;;2.00;;
71696;SDS011;68167;59.120;37.898;2023-10-19T10:42:03;6.43;;;1.70;;
71696;SDS011;68167;59.120;37.898;2023-10-19T10:44:47;2.30;;;1.37;;
71696;SDS011;68167;59.120;37.898;2023-10-19T10:47:19;3.50;;;1.50;;
71696;SDS011;68167;59.120;37.898;2023-10-19T10:55:08;3.57;;;2.07;;
71696;SDS011;68167;59.120;37.898;2023-10-19T10:57:40;1.97;;;1.23;;
71696;SDS011;68167;59.120;37.898;2023-10-19T11:00:11;2.90;;;1.47;;
71696;SDS011;68167;59.120;37.898;2023-10-19T11:03:02;3.87;;;1.90;;
71696;SDS011;68167;59.120;37.898;2023-10-19T11:05:36;3.27;;;1.60;;
71696;SDS011;68167;59.120;37.898;2023-10-19T11:10:32;2.73;;;1.73;;
71696;SDS011;68167;59.120;37.898;2023-10-19T11:13:00;3.83;;;1.80;;
71696;SDS011;68167;59.120;37.898;2023-10-19T11:15:30;6.43;;;1.87;;
71696;SDS011;68167;59.120;37.898;2023-10-19T11:17:56;5.27;;;1.80;;
71696;SDS011;68167;59.120;37.898;2023-10-19T11:20:24;2.53;;;1.90;;
71696;SDS011;68167;59.120;37.898;2023-10-19T11:22:52;4.63;;;1.70;;
71696;SDS011;68167;59.120;37.898;2023-10-19T11:25:23;5.97;;;1.43;;
71696;SDS011;68167;59.120;37.898;2023-10-19T11:27:50;2.87;;;1.10;;
71696;SDS011;68167;59.120;37.898;2023-10-19T11:30:25;4.00;;;2.07;;
71696;SDS011;68167;59.120;37.898;2023-10-19T11:32:58;1.60;;;1.10;;
71696;SDS011;68167;59.120;37.898;2023-10-19T11:35:28;2.47;;;1.10;;
71696;SDS011;68167;59.120;37.898;2023-10-19T11:37:58;1.67;;;1.10;;
71696;SDS011;68167;59.120;37.898;2023-10-19T11:40:28;3.23;;;1.10;;
71696;SDS011;68167;59.120;37.898;2023-10-19T11:42:56;1.93;;;1.00;;
71696;SDS011;68167;59.120;37.898;2023-10-19T11:45:22;1.17;;;0.90;;
71696;SDS011;68167;59.120;37.898;2023-10-19T11:47:52;1.40;;;0.80;;
71696;SDS011;68167;59.120;37.898;2023-10-19T11:50:19;2.83;;;1.23;;
71696;SDS011;68167;59.120;37.898;2023-10-19T11:52:46;5.80;;;1.80;;
71696;SDS011;68167;59.120;37.898;2023-10-19T11:55:13;5.63;;;2.17;;
71696;SDS011;68167;59.120;37.898;2023-10-19T11:57:40;8.40;;;1.50;;
71696;SDS011;68167;59.120;37.898;2023-10-19T12:00:10;4.80;;;1.70;;
71696;SDS011;68167;59.120;37.898;2023-10-19T12:02:48;5.17;;;1.90;;
71696;SDS011;68167;59.120;37.898;2023-10-19T12:05:14;4.23;;;1.50;;
71696;SDS011;68167;59.120;37.898;2023-10-19T12:07:41;3.10;;;1.80;;
71696;SDS011;68167;59.120;37.898;2023-10-19T12:10:08;4.23;;;1.63;;
71696;SDS011;68167;59.120;37.898;2023-10-19T12:12:36;3.23;;;1.57;;
71696;SDS011;68167;59.120;37.898;2023-10-19T12:15:04;5.03;;;1.70;;
71696;SDS011;68167;59.120;37.898;2023-10-19T12:17:34;8.80;;;4.17;;
71696;SDS011;68167;59.120;37.898;2023-10-19T12:20:00;5.10;;;2.20;;
71696;SDS011;68167;59.120;37.898;2023-10-19T12:22:28;5.40;;;1.40;;
71696;SDS011;68167;59.120;37.898;2023-10-19T12:24:58;5.90;;;2.43;;
71696;SDS011;68167;59.120;37.898;2023-10-19T12:27:25;12.73;;;2.00;;
71696;SDS011;68167;59.120;37.898;2023-10-19T12:29:52;6.43;;;2.07;;
71696;SDS011;68167;59.120;37.898;2023-10-19T12:32:18;7.33;;;1.97;;
71696;SDS011;68167;59.120;37.898;2023-10-19T12:34:45;6.67;;;1.90;;
71696;SDS011;68167;59.120;37.898;2023-10-19T12:37:11;4.23;;;1.30;;
71696;SDS011;68167;59.120;37.898;2023-10-19T12:39:39;6.23;;;2.20;;
71696;SDS011;68167;59.120;37.898;2023-10-19T12:42:13;5.90;;;1.90;;
71696;SDS011;68167;59.120;37.898;2023-10-19T12:44:40;3.30;;;2.03;;
71696;SDS011;68167;59.120;37.898;2023-10-19T12:47:10;4.83;;;1.50;;
71696;SDS011;68167;59.120;37.898;2023-10-19T12:49:41;3.97;;;2.07;;
71696;SDS011;68167;59.120;37.898;2023-10-19T12:52:08;2.73;;;1.60;;
71696;SDS011;68167;59.120;37.898;2023-10-19T12:54:37;5.30;;;1.57;;
71696;SDS011;68167;59.120;37.898;2023-10-19T12:57:04;2.57;;;1.70;;
71696;SDS011;68167;59.120;37.898;2023-10-19T12:59:34;20.47;;;10.17;;
71696;SDS011;68167;59.120;37.898;2023-10-19T13:02:05;5.73;;;3.37;;
71696;SDS011;68167;59.120;37.898;2023-10-19T13:04:34;29.43;;;15.23;;
71696;SDS011;68167;59.120;37.898;2023-10-19T13:07:02;4.97;;;3.03;;
71696;SDS011;68167;59.120;37.898;2023-10-19T13:09:29;18.73;;;9.13;;
71696;SDS011;68167;59.120;37.898;2023-10-19T13:12:00;16.53;;;8.50;;
71696;SDS011;68167;59.120;37.898;2023-10-19T13:14:27;27.43;;;12.07;;
71696;SDS011;68167;59.120;37.898;2023-10-19T13:16:54;33.07;;;11.57;;
71696;SDS011;68167;59.120;37.898;2023-10-19T13:19:21;10.57;;;4.37;;
71696;SDS011;68167;59.120;37.898;2023-10-19T13:21:52;7.27;;;4.20;;
71696;SDS011;68167;59.120;37.898;2023-10-19T13:24:20;9.70;;;5.10;;
71696;SDS011;68167;59.120;37.898;2023-10-19T13:26:48;6.80;;;2.30;;
71696;SDS011;68167;59.120;37.898;2023-10-19T13:29:15;3.90;;;2.20;;
71696;SDS011;68167;59.120;37.898;2023-10-19T13:31:41;5.70;;;2.57;;
71696;SDS011;68167;59.120;37.898;2023-10-19T13:34:16;8.13;;;3.37;;
71696;SDS011;68167;59.120;37.898;2023-10-19T13:36:43;7.57;;;2.60;;
71696;SDS011;68167;59.120;37.898;2023-10-19T13:39:12;5.63;;;2.27;;
71696;SDS011;68167;59.120;37.898;2023-10-19T13:41:44;4.43;;;1.60;;
71696;SDS011;68167;59.120;37.898;2023-10-19T13:44:11;3.73;;;1.40;;
71696;SDS011;68167;59.120;37.898;2023-10-19T13:46:41;2.80;;;1.63;;
71696;SDS011;68167;59.120;37.898;2023-10-19T13:49:07;5.37;;;1.57;;
71696;SDS011;68167;59.120;37.898;2023-10-19T13:51:35;4.10;;;1.70;;
71696;SDS011;68167;59.120;37.898;2023-10-19T13:54:02;6.53;;;1.57;;
71696;SDS011;68167;59.120;37.898;2023-10-19T13:56:29;4.03;;;1.70;;
71696;SDS011;68167;59.120;37.898;2023-10-19T13:58:55;2.43;;;1.60;;
71696;SDS011;68167;59.120;37.898;2023-10-19T14:01:21;7.53;;;3.03;;
71696;SDS011;68167;59.120;37.898;2023-10-19T14:03:53;5.53;;;2.60;;
71696;SDS011;68167;59.120;37.898;2023-10-19T14:06:21;6.43;;;2.70;;
71696;SDS011;68167;59.120;37.898;2023-10-19T14:08:48;5.67;;;2.40;;
71696;SDS011;68167;59.120;37.898;2023-10-19T14:11:15;5.77;;;2.00;;
71696;SDS011;68167;59.120;37.898;2023-10-19T14:13:41;4.67;;;2.07;;
71696;SDS011;68167;59.120;37.898;2023-10-19T14:16:08;5.03;;;1.40;;
71696;SDS011;68167;59.120;37.898;2023-10-19T14:18:36;1.93;;;1.10;;
71696;SDS011;68167;59.120;37.898;2023-10-19T14:21:10;4.10;;;1.60;;
71696;SDS011;68167;59.120;37.898;2023-10-19T14:23:41;2.10;;;1.40;;
71696;SDS011;68167;59.120;37.898;2023-10-19T14:26:09;5.00;;;2.60;;
71696;SDS011;68167;59.120;37.898;2023-10-19T14:28:36;3.50;;;2.10;;
71696;SDS011;68167;59.120;37.898;2023-10-19T14:31:02;2.37;;;1.50;;
71696;SDS011;68167;59.120;37.898;2023-10-19T14:33:33;7.93;;;2.30;;
71696;SDS011;68167;59.120;37.898;2023-10-19T14:36:02;7.53;;;2.00;;
71696;SDS011;68167;59.120;37.898;2023-10-19T14:38:32;4.63;;;2.50;;
71696;SDS011;68167;59.120;37.898;2023-10-19T14:40:59;4.37;;;1.57;;
71696;SDS011;68167;59.120;37.898;2023-10-19T14:43:26;3.50;;;1.37;;
71696;SDS011;68167;59.120;37.898;2023-10-19T14:45:55;1.90;;;1.20;;
71696;SDS011;68167;59.120;37.898;2023-10-19T14:48:23;2.97;;;1.50;;
71696;SDS011;68167;59.120;37.898;2023-10-19T14:50:50;3.27;;;1.30;;
71696;SDS011;68167;59.120;37.898;2023-10-19T14:53:17;2.40;;;1.40;;
71696;SDS011;68167;59.120;37.898;2023-10-19T14:55:44;1.57;;;1.13;;
71696;SDS011;68167;59.120;37.898;2023-10-19T14:58:13;3.20;;;1.90;;
71696;SDS011;68167;59.120;37.898;2023-10-19T15:00:41;4.13;;;2.33;;
71696;SDS011;68167;59.120;37.898;2023-10-19T15:03:11;4.77;;;2.30;;
71696;SDS011;68167;59.120;37.898;2023-10-19T15:05:37;6.70;;;2.53;;
71696;SDS011;68167;59.120;37.898;2023-10-19T15:08:05;5.00;;;3.00;;
71696;SDS011;68167;59.120;37.898;2023-10-19T15:10:34;5.83;;;3.90;;
71696;SDS011;68167;59.120;37.898;2023-10-19T15:13:02;6.03;;;4.03;;